sensor_id;sensor_type;location;lat;lon;timestamp;P1;durP1;ratioP1;P2;durP2;ratioP2
72379;SDS011;60354;47.798;12.472;2023-05-07T00:01:15;3.80;;;1.98;;
72379;SDS011;60354;47.798;12.472;2023-05-07T00:03:41;2.45;;;1.90;;
72379;SDS011;60354;47.798;12.472;2023-05-07T00:06:06;4.13;;;1.98;;
72379;SDS011;60354;47.798;12.472;2023-05-07T00:08:32;3.67;;;2.10;;
72379;SDS011;60354;47.798;12.472;2023-05-07T00:10:57;6.97;;;2.20;;
72379;SDS011;60354;47.798;12.472;2023-05-07T00:13:23;3.78;;;2.50;;
72379;SDS011;60354;47.798;12.472;2023-05-07T00:15:48;3.17;;;2.10;;
72379;SDS011;60354;47.798;12.472;2023-05-07T00:18:14;4.07;;;2.17;;
72379;SDS011;60354;47.798;12.472;2023-05-07T00:20:39;4.65;;;2.40;;
72379;SDS011;60354;47.798;12.472;2023-05-07T00:23:05;3.53;;;2.13;;
72379;SDS011;60354;47.798;12.472;2023-05-07T00:25:30;4.15;;;2.15;;
72379;SDS011;60354;47.798;12.472;2023-05-07T00:27:56;3.30;;;2.00;;
72379;SDS011;60354;47.798;12.472;2023-05-07T00:30:22;3.53;;;2.28;;
72379;SDS011;60354;47.798;12.472;2023-05-07T00:32:48;5.28;;;2.20;;
72379;SDS011;60354;47.798;12.472;2023-05-07T00:35:14;3.00;;;1.90;;
72379;SDS011;60354;47.798;12.472;2023-05-07T00:37:39;5.32;;;2.10;;
72379;SDS011;60354;47.798;12.472;2023-05-07T00:40:05;4.05;;;2.30;;
72379;SDS011;60354;47.798;12.472;2023-05-07T00:42:32;4.40;;;2.30;;
72379;SDS011;60354;47.798;12.472;2023-05-07T00:44:58;3.97;;;2.40;;
72379;SDS011;60354;47.798;12.472;2023-05-07T00:47:24;4.15;;;2.33;;
72379;SDS011;60354;47.798;12.472;2023-05-07T00:49:50;4.28;;;2.40;;
72379;SDS011;60354;47.798;12.472;2023-05-07T00:52:17;3.75;;;2.13;;
72379;SDS011;60354;47.798;12.472;2023-05-07T00:54:45;4.13;;;2.00;;
72379;SDS011;60354;47.798;12.472;2023-05-07T00:57:10;2.47;;;1.92;;
72379;SDS011;60354;47.798;12.472;2023-05-07T00:59:36;5.10;;;2.10;;
72379;SDS011;60354;47.798;12.472;2023-05-07T01:02:02;4.13;;;2.30;;
72379;SDS011;60354;47.798;12.472;2023-05-07T01:04:28;3.35;;;2.00;;
72379;SDS011;60354;47.798;12.472;2023-05-07T01:06:54;3.03;;;2.10;;
72379;SDS011;60354;47.798;12.472;2023-05-07T01:09:21;4.38;;;2.72;;
72379;SDS011;60354;47.798;12.472;2023-05-07T01:11:49;6.18;;;3.03;;
72379;SDS011;60354;47.798;12.472;2023-05-07T01:14:16;3.92;;;3.13;;
72379;SDS011;60354;47.798;12.472;2023-05-07T01:16:41;6.15;;;4.20;;
72379;SDS011;60354;47.798;12.472;2023-05-07T01:19:08;3.88;;;3.40;;
72379;SDS011;60354;47.798;12.472;2023-05-07T01:21:36;5.38;;;3.38;;
72379;SDS011;60354;47.798;12.472;2023-05-07T01:24:04;8.30;;;3.38;;
72379;SDS011;60354;47.798;12.472;2023-05-07T01:26:32;5.80;;;3.55;;
72379;SDS011;60354;47.798;12.472;2023-05-07T01:28:57;6.82;;;3.40;;
72379;SDS011;60354;47.798;12.472;2023-05-07T01:31:23;4.80;;;3.30;;
72379;SDS011;60354;47.798;12.472;2023-05-07T01:33:49;5.95;;;3.42;;
72379;SDS011;60354;47.798;12.472;2023-05-07T01:36:17;5.50;;;3.88;;
72379;SDS011;60354;47.798;12.472;2023-05-07T01:38:43;4.15;;;3.25;;
72379;SDS011;60354;47.798;12.472;2023-05-07T01:41:09;5.38;;;3.60;;
72379;SDS011;60354;47.798;12.472;2023-05-07T01:43:35;6.00;;;3.72;;
72379;SDS011;60354;47.798;12.472;2023-05-07T01:46:01;6.15;;;3.38;;
72379;SDS011;60354;47.798;12.472;2023-05-07T01:48:27;4.65;;;3.35;;
72379;SDS011;60354;47.798;12.472;2023-05-07T01:50:54;5.57;;;2.92;;
72379;SDS011;60354;47.798;12.472;2023-05-07T01:53:20;5.20;;;3.17;;
72379;SDS011;60354;47.798;12.472;2023-05-07T01:55:46;4.90;;;3.25;;
72379;SDS011;60354;47.798;12.472;2023-05-07T01:58:11;4.20;;;3.40;;
72379;SDS011;60354;47.798;12.472;2023-05-07T02:00:37;5.10;;;3.38;;
72379;SDS011;60354;47.798;12.472;2023-05-07T02:03:03;4.45;;;3.13;;
72379;SDS011;60354;47.798;12.472;2023-05-07T02:05:43;4.28;;;3.10;;
72379;SDS011;60354;47.798;12.472;2023-05-07T02:08:16;4.72;;;3.17;;
72379;SDS011;60354;47.798;12.472;2023-05-07T02:10:41;4.00;;;2.83;;
72379;SDS011;60354;47.798;12.472;2023-05-07T02:13:07;4.50;;;3.00;;
72379;SDS011;60354;47.798;12.472;2023-05-07T02:15:32;4.60;;;2.80;;
72379;SDS011;60354;47.798;12.472;2023-05-07T02:18:01;3.42;;;2.70;;
72379;SDS011;60354;47.798;12.472;2023-05-07T02:20:32;4.22;;;2.47;;
72379;SDS011;60354;47.798;12.472;2023-05-07T02:22:57;4.10;;;2.40;;
72379;SDS011;60354;47.798;12.472;2023-05-07T02:25:25;6.25;;;2.60;;
72379;SDS011;60354;47.798;12.472;2023-05-07T02:27:50;3.90;;;2.58;;
72379;SDS011;60354;47.798;12.472;2023-05-07T02:30:17;6.53;;;2.80;;
72379;SDS011;60354;47.798;12.472;2023-05-07T02:32:43;5.13;;;3.60;;
72379;SDS011;60354;47.798;12.472;2023-05-07T02:35:09;15.02;;;3.85;;
72379;SDS011;60354;47.798;12.472;2023-05-07T02:37:34;7.72;;;3.38;;
72379;SDS011;60354;47.798;12.472;2023-05-07T02:40:00;5.03;;;3.70;;
72379;SDS011;60354;47.798;12.472;2023-05-07T02:42:25;10.60;;;4.30;;
72379;SDS011;60354;47.798;12.472;2023-05-07T02:44:51;4.13;;;3.35;;
72379;SDS011;60354;47.798;12.472;2023-05-07T02:47:17;6.30;;;3.40;;
72379;SDS011;60354;47.798;12.472;2023-05-07T02:49:44;4.95;;;3.00;;
72379;SDS011;60354;47.798;12.472;2023-05-07T02:52:09;3.53;;;2.90;;
72379;SDS011;60354;47.798;12.472;2023-05-07T02:54:35;3.95;;;3.08;;
72379;SDS011;60354;47.798;12.472;2023-05-07T02:57:00;3.08;;;2.70;;
72379;SDS011;60354;47.798;12.472;2023-05-07T02:59:27;3.78;;;2.80;;
72379;SDS011;60354;47.798;12.472;2023-05-07T03:01:53;3.85;;;2.83;;
72379;SDS011;60354;47.798;12.472;2023-05-07T03:04:18;4.10;;;2.70;;
72379;SDS011;60354;47.798;12.472;2023-05-07T03:06:44;3.10;;;2.30;;
72379;SDS011;60354;47.798;12.472;2023-05-07T03:09:09;3.22;;;2.30;;
72379;SDS011;60354;47.798;12.472;2023-05-07T03:11:35;3.65;;;2.40;;
72379;SDS011;60354;47.798;12.472;2023-05-07T03:14:01;3.67;;;2.40;;
72379;SDS011;60354;47.798;12.472;2023-05-07T03:16:27;3.90;;;2.30;;
72379;SDS011;60354;47.798;12.472;2023-05-07T03:18:53;3.72;;;2.10;;
72379;SDS011;60354;47.798;12.472;2023-05-07T03:21:18;5.25;;;2.00;;
72379;SDS011;60354;47.798;12.472;2023-05-07T03:23:44;4.50;;;2.05;;
72379;SDS011;60354;47.798;12.472;2023-05-07T03:26:10;6.15;;;2.10;;
72379;SDS011;60354;47.798;12.472;2023-05-07T03:28:36;4.18;;;2.08;;
72379;SDS011;60354;47.798;12.472;2023-05-07T03:31:05;2.95;;;2.00;;
72379;SDS011;60354;47.798;12.472;2023-05-07T03:33:33;3.95;;;2.13;;
72379;SDS011;60354;47.798;12.472;2023-05-07T03:36:00;3.85;;;2.20;;
72379;SDS011;60354;47.798;12.472;2023-05-07T03:38:27;6.80;;;2.20;;
72379;SDS011;60354;47.798;12.472;2023-05-07T03:40:52;5.75;;;2.30;;
72379;SDS011;60354;47.798;12.472;2023-05-07T03:43:18;2.38;;;1.80;;
72379;SDS011;60354;47.798;12.472;2023-05-07T03:45:48;3.95;;;2.10;;
72379;SDS011;60354;47.798;12.472;2023-05-07T03:48:19;5.07;;;2.25;;
72379;SDS011;60354;47.798;12.472;2023-05-07T03:50:46;3.20;;;2.30;;
72379;SDS011;60354;47.798;12.472;2023-05-07T03:53:14;4.90;;;2.15;;
72379;SDS011;60354;47.798;12.472;2023-05-07T03:55:39;3.78;;;2.20;;
72379;SDS011;60354;47.798;12.472;2023-05-07T03:58:05;3.00;;;2.08;;
72379;SDS011;60354;47.798;12.472;2023-05-07T04:00:31;4.38;;;2.40;;
72379;SDS011;60354;47.798;12.472;2023-05-07T04:02:59;3.53;;;2.10;;
72379;SDS011;60354;47.798;12.472;2023-05-07T04:05:28;2.85;;;2.10;;
72379;SDS011;60354;47.798;12.472;2023-05-07T04:07:58;4.18;;;2.30;;
72379;SDS011;60354;47.798;12.472;2023-05-07T04:10:30;4.03;;;2.30;;
72379;SDS011;60354;47.798;12.472;2023-05-07T04:12:57;3.70;;;2.40;;
72379;SDS011;60354;47.798;12.472;2023-05-07T04:15:24;3.17;;;2.22;;
72379;SDS011;60354;47.798;12.472;2023-05-07T04:17:50;3.20;;;2.40;;
72379;SDS011;60354;47.798;12.472;2023-05-07T04:20:18;2.67;;;2.42;;
72379;SDS011;60354;47.798;12.472;2023-05-07T04:22:48;4.82;;;2.88;;
72379;SDS011;60354;47.798;12.472;2023-05-07T04:25:13;8.80;;;2.55;;
72379;SDS011;60354;47.798;12.472;2023-05-07T04:27:39;4.40;;;2.90;;
72379;SDS011;60354;47.798;12.472;2023-05-07T04:30:05;5.13;;;2.90;;
72379;SDS011;60354;47.798;12.472;2023-05-07T04:32:36;4.25;;;2.88;;
72379;SDS011;60354;47.798;12.472;2023-05-07T04:35:03;4.32;;;2.63;;
72379;SDS011;60354;47.798;12.472;2023-05-07T04:37:29;7.45;;;2.60;;
72379;SDS011;60354;47.798;12.472;2023-05-07T04:39:56;5.00;;;3.00;;
72379;SDS011;60354;47.798;12.472;2023-05-07T04:42:22;6.22;;;3.03;;
72379;SDS011;60354;47.798;12.472;2023-05-07T04:44:52;5.07;;;3.13;;
72379;SDS011;60354;47.798;12.472;2023-05-07T04:47:18;4.07;;;3.05;;
72379;SDS011;60354;47.798;12.472;2023-05-07T04:49:44;4.53;;;3.20;;
72379;SDS011;60354;47.798;12.472;2023-05-07T04:52:10;6.20;;;3.35;;
72379;SDS011;60354;47.798;12.472;2023-05-07T04:54:36;5.22;;;3.47;;
72379;SDS011;60354;47.798;12.472;2023-05-07T04:57:03;5.38;;;3.47;;
72379;SDS011;60354;47.798;12.472;2023-05-07T04:59:29;7.53;;;3.72;;
72379;SDS011;60354;47.798;12.472;2023-05-07T05:01:55;5.28;;;3.95;;
72379;SDS011;60354;47.798;12.472;2023-05-07T05:04:21;5.82;;;4.00;;
72379;SDS011;60354;47.798;12.472;2023-05-07T05:06:46;4.40;;;3.50;;
72379;SDS011;60354;47.798;12.472;2023-05-07T05:09:13;5.40;;;3.70;;
72379;SDS011;60354;47.798;12.472;2023-05-07T05:11:41;11.77;;;6.10;;
72379;SDS011;60354;47.798;12.472;2023-05-07T05:14:06;7.70;;;4.72;;
72379;SDS011;60354;47.798;12.472;2023-05-07T05:16:32;5.45;;;3.60;;
72379;SDS011;60354;47.798;12.472;2023-05-07T05:18:58;6.20;;;3.75;;
72379;SDS011;60354;47.798;12.472;2023-05-07T05:21:23;9.20;;;3.75;;
72379;SDS011;60354;47.798;12.472;2023-05-07T05:23:53;5.95;;;3.42;;
72379;SDS011;60354;47.798;12.472;2023-05-07T05:26:22;6.53;;;3.60;;
72379;SDS011;60354;47.798;12.472;2023-05-07T05:28:48;5.88;;;3.30;;
72379;SDS011;60354;47.798;12.472;2023-05-07T05:31:16;4.07;;;3.10;;
72379;SDS011;60354;47.798;12.472;2023-05-07T05:33:42;4.95;;;2.97;;
72379;SDS011;60354;47.798;12.472;2023-05-07T05:36:09;6.43;;;3.50;;
72379;SDS011;60354;47.798;12.472;2023-05-07T05:38:36;5.10;;;2.97;;
72379;SDS011;60354;47.798;12.472;2023-05-07T05:41:02;2.63;;;2.10;;
72379;SDS011;60354;47.798;12.472;2023-05-07T05:43:29;3.88;;;2.15;;
72379;SDS011;60354;47.798;12.472;2023-05-07T05:45:55;3.00;;;2.08;;
72379;SDS011;60354;47.798;12.472;2023-05-07T05:48:21;3.53;;;1.80;;
72379;SDS011;60354;47.798;12.472;2023-05-07T05:50:47;3.58;;;2.00;;
72379;SDS011;60354;47.798;12.472;2023-05-07T05:53:14;2.28;;;1.65;;
72379;SDS011;60354;47.798;12.472;2023-05-07T05:55:41;2.95;;;1.88;;
72379;SDS011;60354;47.798;12.472;2023-05-07T05:58:07;2.70;;;1.60;;
72379;SDS011;60354;47.798;12.472;2023-05-07T06:00:38;3.22;;;1.77;;
72379;SDS011;60354;47.798;12.472;2023-05-07T06:03:05;3.95;;;1.67;;
72379;SDS011;60354;47.798;12.472;2023-05-07T06:05:31;5.53;;;1.65;;
72379;SDS011;60354;47.798;12.472;2023-05-07T06:07:57;4.60;;;1.60;;
72379;SDS011;60354;47.798;12.472;2023-05-07T06:10:23;4.63;;;1.50;;
72379;SDS011;60354;47.798;12.472;2023-05-07T06:12:49;2.00;;;1.35;;
72379;SDS011;60354;47.798;12.472;2023-05-07T06:15:15;4.63;;;1.20;;
72379;SDS011;60354;47.798;12.472;2023-05-07T06:17:41;3.00;;;1.60;;
72379;SDS011;60354;47.798;12.472;2023-05-07T06:20:08;5.40;;;1.67;;
72379;SDS011;60354;47.798;12.472;2023-05-07T06:22:34;2.97;;;1.70;;
72379;SDS011;60354;47.798;12.472;2023-05-07T06:25:00;4.85;;;2.45;;
72379;SDS011;60354;47.798;12.472;2023-05-07T06:27:26;4.28;;;2.08;;
72379;SDS011;60354;47.798;12.472;2023-05-07T06:29:53;4.63;;;1.90;;
72379;SDS011;60354;47.798;12.472;2023-05-07T06:32:18;6.22;;;2.20;;
72379;SDS011;60354;47.798;12.472;2023-05-07T06:34:45;2.80;;;2.05;;
72379;SDS011;60354;47.798;12.472;2023-05-07T06:37:11;3.35;;;2.40;;
72379;SDS011;60354;47.798;12.472;2023-05-07T06:39:59;3.75;;;2.53;;
72379;SDS011;60354;47.798;12.472;2023-05-07T06:42:25;4.93;;;2.60;;
72379;SDS011;60354;47.798;12.472;2023-05-07T06:44:56;3.25;;;2.65;;
72379;SDS011;60354;47.798;12.472;2023-05-07T06:47:22;3.88;;;2.20;;
72379;SDS011;60354;47.798;12.472;2023-05-07T06:49:51;3.15;;;2.17;;
72379;SDS011;60354;47.798;12.472;2023-05-07T06:52:19;3.47;;;2.22;;
72379;SDS011;60354;47.798;12.472;2023-05-07T06:54:47;4.38;;;2.47;;
72379;SDS011;60354;47.798;12.472;2023-05-07T06:57:16;3.45;;;2.20;;
72379;SDS011;60354;47.798;12.472;2023-05-07T06:59:41;3.42;;;2.40;;
72379;SDS011;60354;47.798;12.472;2023-05-07T07:02:07;6.32;;;2.40;;
72379;SDS011;60354;47.798;12.472;2023-05-07T07:04:34;4.97;;;2.20;;
72379;SDS011;60354;47.798;12.472;2023-05-07T07:07:04;3.78;;;2.10;;
72379;SDS011;60354;47.798;12.472;2023-05-07T07:09:30;7.47;;;2.47;;
72379;SDS011;60354;47.798;12.472;2023-05-07T07:11:57;7.07;;;2.40;;
72379;SDS011;60354;47.798;12.472;2023-05-07T07:14:23;2.92;;;2.17;;
72379;SDS011;60354;47.798;12.472;2023-05-07T07:16:50;3.20;;;2.40;;
72379;SDS011;60354;47.798;12.472;2023-05-07T07:19:18;3.85;;;2.00;;
72379;SDS011;60354;47.798;12.472;2023-05-07T07:21:47;3.30;;;2.00;;
72379;SDS011;60354;47.798;12.472;2023-05-07T07:24:14;3.25;;;1.85;;
72379;SDS011;60354;47.798;12.472;2023-05-07T07:26:45;2.85;;;1.80;;
72379;SDS011;60354;47.798;12.472;2023-05-07T07:29:11;6.47;;;2.00;;
72379;SDS011;60354;47.798;12.472;2023-05-07T07:31:37;2.97;;;1.70;;
72379;SDS011;60354;47.798;12.472;2023-05-07T07:34:04;3.55;;;2.13;;
72379;SDS011;60354;47.798;12.472;2023-05-07T07:36:30;5.05;;;1.90;;
72379;SDS011;60354;47.798;12.472;2023-05-07T07:38:55;3.40;;;2.10;;
72379;SDS011;60354;47.798;12.472;2023-05-07T07:41:21;3.10;;;2.00;;
72379;SDS011;60354;47.798;12.472;2023-05-07T07:43:47;5.32;;;1.77;;
72379;SDS011;60354;47.798;12.472;2023-05-07T07:46:12;2.75;;;1.58;;
72379;SDS011;60354;47.798;12.472;2023-05-07T07:48:38;3.38;;;2.00;;
72379;SDS011;60354;47.798;12.472;2023-05-07T07:51:04;2.72;;;2.00;;
72379;SDS011;60354;47.798;12.472;2023-05-07T07:53:30;2.50;;;1.80;;
72379;SDS011;60354;47.798;12.472;2023-05-07T07:55:56;4.03;;;2.03;;
72379;SDS011;60354;47.798;12.472;2023-05-07T07:58:25;3.53;;;2.10;;
72379;SDS011;60354;47.798;12.472;2023-05-07T08:00:51;3.05;;;2.15;;
72379;SDS011;60354;47.798;12.472;2023-05-07T08:03:17;4.07;;;2.13;;
72379;SDS011;60354;47.798;12.472;2023-05-07T08:05:47;5.45;;;2.10;;
72379;SDS011;60354;47.798;12.472;2023-05-07T08:08:12;4.68;;;1.90;;
72379;SDS011;60354;47.798;12.472;2023-05-07T08:10:39;2.35;;;1.95;;
72379;SDS011;60354;47.798;12.472;2023-05-07T08:13:13;4.15;;;1.90;;
72379;SDS011;60354;47.798;12.472;2023-05-07T08:15:40;2.83;;;1.80;;
72379;SDS011;60354;47.798;12.472;2023-05-07T08:18:06;6.10;;;2.10;;
72379;SDS011;60354;47.798;12.472;2023-05-07T08:20:32;2.22;;;1.80;;
72379;SDS011;60354;47.798;12.472;2023-05-07T08:22:59;4.10;;;1.98;;
72379;SDS011;60354;47.798;12.472;2023-05-07T08:25:26;2.53;;;1.83;;
72379;SDS011;60354;47.798;12.472;2023-05-07T08:27:51;2.42;;;1.70;;
72379;SDS011;60354;47.798;12.472;2023-05-07T08:30:17;3.75;;;1.73;;
72379;SDS011;60354;47.798;12.472;2023-05-07T08:32:43;4.05;;;1.98;;
72379;SDS011;60354;47.798;12.472;2023-05-07T08:35:09;3.17;;;1.80;;
72379;SDS011;60354;47.798;12.472;2023-05-07T08:37:34;2.95;;;1.85;;
72379;SDS011;60354;47.798;12.472;2023-05-07T08:40:00;4.13;;;2.00;;
72379;SDS011;60354;47.798;12.472;2023-05-07T08:42:30;5.40;;;2.03;;
72379;SDS011;60354;47.798;12.472;2023-05-07T08:44:57;3.05;;;1.95;;
72379;SDS011;60354;47.798;12.472;2023-05-07T08:47:26;5.53;;;2.03;;
72379;SDS011;60354;47.798;12.472;2023-05-07T08:49:58;2.42;;;1.90;;
72379;SDS011;60354;47.798;12.472;2023-05-07T08:52:24;2.90;;;2.17;;
72379;SDS011;60354;47.798;12.472;2023-05-07T08:54:51;5.68;;;2.20;;
72379;SDS011;60354;47.798;12.472;2023-05-07T08:57:17;2.83;;;2.08;;
72379;SDS011;60354;47.798;12.472;2023-05-07T08:59:45;3.17;;;2.10;;
72379;SDS011;60354;47.798;12.472;2023-05-07T09:02:11;4.93;;;2.20;;
72379;SDS011;60354;47.798;12.472;2023-05-07T09:04:37;4.40;;;2.72;;
72379;SDS011;60354;47.798;12.472;2023-05-07T09:07:02;3.45;;;2.10;;
72379;SDS011;60354;47.798;12.472;2023-05-07T09:09:32;3.15;;;2.00;;
72379;SDS011;60354;47.798;12.472;2023-05-07T09:12:00;3.42;;;2.28;;
72379;SDS011;60354;47.798;12.472;2023-05-07T09:14:27;3.80;;;2.20;;
72379;SDS011;60354;47.798;12.472;2023-05-07T09:16:53;4.57;;;2.20;;
72379;SDS011;60354;47.798;12.472;2023-05-07T09:19:23;3.45;;;2.10;;
72379;SDS011;60354;47.798;12.472;2023-05-07T09:21:57;4.38;;;2.10;;
72379;SDS011;60354;47.798;12.472;2023-05-07T09:24:29;3.53;;;2.25;;
72379;SDS011;60354;47.798;12.472;2023-05-07T09:27:01;3.58;;;2.20;;
72379;SDS011;60354;47.798;12.472;2023-05-07T09:29:27;2.55;;;1.90;;
72379;SDS011;60354;47.798;12.472;2023-05-07T09:31:55;2.63;;;2.00;;
72379;SDS011;60354;47.798;12.472;2023-05-07T09:34:21;3.15;;;2.00;;
72379;SDS011;60354;47.798;12.472;2023-05-07T09:36:47;5.70;;;2.67;;
72379;SDS011;60354;47.798;12.472;2023-05-07T09:39:13;4.82;;;2.85;;
72379;SDS011;60354;47.798;12.472;2023-05-07T09:41:48;2.33;;;1.73;;
72379;SDS011;60354;47.798;12.472;2023-05-07T09:44:25;3.38;;;1.80;;
72379;SDS011;60354;47.798;12.472;2023-05-07T09:46:53;3.45;;;1.90;;
72379;SDS011;60354;47.798;12.472;2023-05-07T09:49:28;3.92;;;1.60;;
72379;SDS011;60354;47.798;12.472;2023-05-07T09:52:00;2.42;;;1.77;;
72379;SDS011;60354;47.798;12.472;2023-05-07T09:54:28;3.13;;;1.60;;
72379;SDS011;60354;47.798;12.472;2023-05-07T09:56:56;3.67;;;1.70;;
72379;SDS011;60354;47.798;12.472;2023-05-07T09:59:25;3.17;;;1.60;;
72379;SDS011;60354;47.798;12.472;2023-05-07T10:01:52;3.33;;;1.90;;
72379;SDS011;60354;47.798;12.472;2023-05-07T10:04:21;2.95;;;1.52;;
72379;SDS011;60354;47.798;12.472;2023-05-07T10:06:47;5.68;;;1.58;;
72379;SDS011;60354;47.798;12.472;2023-05-07T10:09:13;4.85;;;1.67;;
72379;SDS011;60354;47.798;12.472;2023-05-07T10:11:40;2.85;;;1.63;;
72379;SDS011;60354;47.798;12.472;2023-05-07T10:14:06;5.95;;;1.60;;
72379;SDS011;60354;47.798;12.472;2023-05-07T10:16:33;3.63;;;1.67;;
72379;SDS011;60354;47.798;12.472;2023-05-07T10:19:03;3.03;;;1.60;;
72379;SDS011;60354;47.798;12.472;2023-05-07T10:21:30;2.38;;;1.50;;
72379;SDS011;60354;47.798;12.472;2023-05-07T10:24:00;2.58;;;1.50;;
72379;SDS011;60354;47.798;12.472;2023-05-07T10:26:35;3.05;;;1.40;;
72379;SDS011;60354;47.798;12.472;2023-05-07T10:29:03;2.38;;;1.63;;
72379;SDS011;60354;47.798;12.472;2023-05-07T10:34:33;1.60;;;1.33;;
72379;SDS011;60354;47.798;12.472;2023-05-07T10:37:03;2.80;;;1.43;;
72379;SDS011;60354;47.798;12.472;2023-05-07T10:39:30;3.05;;;1.40;;
72379;SDS011;60354;47.798;12.472;2023-05-07T10:41:56;6.22;;;1.70;;
72379;SDS011;60354;47.798;12.472;2023-05-07T10:44:29;2.50;;;1.50;;
72379;SDS011;60354;47.798;12.472;2023-05-07T10:47:07;2.05;;;1.38;;
72379;SDS011;60354;47.798;12.472;2023-05-07T10:49:37;3.45;;;1.60;;
72379;SDS011;60354;47.798;12.472;2023-05-07T10:52:24;5.40;;;1.80;;
72379;SDS011;60354;47.798;12.472;2023-05-07T10:58:25;2.72;;;1.60;;
72379;SDS011;60354;47.798;12.472;2023-05-07T11:00:56;2.47;;;1.60;;
72379;SDS011;60354;47.798;12.472;2023-05-07T11:03:27;3.05;;;1.60;;
72379;SDS011;60354;47.798;12.472;2023-05-07T11:06:08;3.35;;;1.75;;
72379;SDS011;60354;47.798;12.472;2023-05-07T11:09:03;2.38;;;1.77;;
72379;SDS011;60354;47.798;12.472;2023-05-07T11:11:52;2.90;;;1.45;;
72379;SDS011;60354;47.798;12.472;2023-05-07T11:14:44;5.70;;;1.58;;
72379;SDS011;60354;47.798;12.472;2023-05-07T11:17:26;2.60;;;1.50;;
72379;SDS011;60354;47.798;12.472;2023-05-07T11:20:01;4.68;;;1.58;;
72379;SDS011;60354;47.798;12.472;2023-05-07T11:22:40;3.65;;;1.60;;
72379;SDS011;60354;47.798;12.472;2023-05-07T11:25:29;3.33;;;1.80;;
72379;SDS011;60354;47.798;12.472;2023-05-07T11:28:05;2.38;;;1.60;;
72379;SDS011;60354;47.798;12.472;2023-05-07T11:30:32;3.95;;;1.70;;
72379;SDS011;60354;47.798;12.472;2023-05-07T11:32:58;2.50;;;1.63;;
72379;SDS011;60354;47.798;12.472;2023-05-07T11:35:24;1.98;;;1.40;;
72379;SDS011;60354;47.798;12.472;2023-05-07T11:37:57;4.85;;;1.70;;
72379;SDS011;60354;47.798;12.472;2023-05-07T11:42:50;4.68;;;2.38;;
72379;SDS011;60354;47.798;12.472;2023-05-07T11:45:19;4.75;;;3.22;;
72379;SDS011;60354;47.798;12.472;2023-05-07T11:47:49;3.17;;;1.70;;
72379;SDS011;60354;47.798;12.472;2023-05-07T11:50:14;4.65;;;2.05;;
72379;SDS011;60354;47.798;12.472;2023-05-07T11:52:40;4.03;;;1.90;;
72379;SDS011;60354;47.798;12.472;2023-05-07T11:55:17;5.15;;;1.95;;
72379;SDS011;60354;47.798;12.472;2023-05-07T11:57:44;3.47;;;1.63;;
72379;SDS011;60354;47.798;12.472;2023-05-07T12:00:10;4.13;;;2.22;;
72379;SDS011;60354;47.798;12.472;2023-05-07T12:02:39;4.45;;;1.88;;
72379;SDS011;60354;47.798;12.472;2023-05-07T12:05:04;3.80;;;1.90;;
72379;SDS011;60354;47.798;12.472;2023-05-07T12:07:30;3.75;;;1.98;;
72379;SDS011;60354;47.798;12.472;2023-05-07T12:10:04;4.72;;;2.72;;
72379;SDS011;60354;47.798;12.472;2023-05-07T12:12:31;4.22;;;2.47;;
72379;SDS011;60354;47.798;12.472;2023-05-07T12:15:02;2.55;;;2.10;;
72379;SDS011;60354;47.798;12.472;2023-05-07T12:17:28;3.55;;;1.92;;
72379;SDS011;60354;47.798;12.472;2023-05-07T12:19:54;2.83;;;1.70;;
72379;SDS011;60354;47.798;12.472;2023-05-07T12:22:19;2.60;;;1.77;;
72379;SDS011;60354;47.798;12.472;2023-05-07T12:24:46;7.75;;;1.90;;
72379;SDS011;60354;47.798;12.472;2023-05-07T12:27:13;3.65;;;2.00;;
72379;SDS011;60354;47.798;12.472;2023-05-07T12:29:39;3.50;;;2.30;;
72379;SDS011;60354;47.798;12.472;2023-05-07T12:32:12;2.78;;;1.80;;
72379;SDS011;60354;47.798;12.472;2023-05-07T12:34:39;4.30;;;2.00;;
72379;SDS011;60354;47.798;12.472;2023-05-07T12:37:05;3.78;;;1.80;;
72379;SDS011;60354;47.798;12.472;2023-05-07T12:39:30;3.28;;;1.90;;
72379;SDS011;60354;47.798;12.472;2023-05-07T12:42:00;3.13;;;1.80;;
72379;SDS011;60354;47.798;12.472;2023-05-07T12:44:30;5.13;;;1.92;;
72379;SDS011;60354;47.798;12.472;2023-05-07T12:47:02;6.80;;;1.98;;
72379;SDS011;60354;47.798;12.472;2023-05-07T12:49:28;3.83;;;1.80;;
72379;SDS011;60354;47.798;12.472;2023-05-07T12:51:53;3.25;;;1.70;;
72379;SDS011;60354;47.798;12.472;2023-05-07T12:57:15;3.75;;;1.70;;
72379;SDS011;60354;47.798;12.472;2023-05-07T12:59:45;2.17;;;1.70;;
72379;SDS011;60354;47.798;12.472;2023-05-07T13:02:11;3.90;;;1.88;;
72379;SDS011;60354;47.798;12.472;2023-05-07T13:04:38;3.13;;;1.70;;
72379;SDS011;60354;47.798;12.472;2023-05-07T13:07:04;3.63;;;2.03;;
72379;SDS011;60354;47.798;12.472;2023-05-07T13:09:30;4.68;;;2.10;;
72379;SDS011;60354;47.798;12.472;2023-05-07T13:11:56;2.92;;;1.95;;
72379;SDS011;60354;47.798;12.472;2023-05-07T13:14:21;2.28;;;1.80;;
72379;SDS011;60354;47.798;12.472;2023-05-07T13:16:47;3.17;;;1.95;;
72379;SDS011;60354;47.798;12.472;2023-05-07T13:19:13;3.25;;;2.20;;
72379;SDS011;60354;47.798;12.472;2023-05-07T13:21:38;3.90;;;1.98;;
72379;SDS011;60354;47.798;12.472;2023-05-07T13:24:07;8.18;;;3.00;;
72379;SDS011;60354;47.798;12.472;2023-05-07T13:26:32;5.75;;;2.35;;
72379;SDS011;60354;47.798;12.472;2023-05-07T13:28:58;6.35;;;3.80;;
72379;SDS011;60354;47.798;12.472;2023-05-07T13:31:24;3.78;;;1.92;;
72379;SDS011;60354;47.798;12.472;2023-05-07T13:33:50;2.55;;;2.15;;
72379;SDS011;60354;47.798;12.472;2023-05-07T13:36:15;2.70;;;2.10;;
72379;SDS011;60354;47.798;12.472;2023-05-07T13:38:41;3.00;;;2.10;;
72379;SDS011;60354;47.798;12.472;2023-05-07T13:41:06;3.35;;;2.05;;
72379;SDS011;60354;47.798;12.472;2023-05-07T13:43:32;3.38;;;2.38;;
72379;SDS011;60354;47.798;12.472;2023-05-07T13:45:59;2.95;;;2.28;;
72379;SDS011;60354;47.798;12.472;2023-05-07T13:48:25;3.53;;;2.20;;
72379;SDS011;60354;47.798;12.472;2023-05-07T13:50:50;4.13;;;2.03;;
72379;SDS011;60354;47.798;12.472;2023-05-07T13:53:16;3.40;;;1.90;;
72379;SDS011;60354;47.798;12.472;2023-05-07T13:55:43;3.42;;;1.90;;
72379;SDS011;60354;47.798;12.472;2023-05-07T13:58:09;9.73;;;4.90;;
72379;SDS011;60354;47.798;12.472;2023-05-07T14:00:35;4.18;;;2.55;;
72379;SDS011;60354;47.798;12.472;2023-05-07T14:03:00;3.20;;;2.30;;
72379;SDS011;60354;47.798;12.472;2023-05-07T14:05:26;3.08;;;2.10;;
72379;SDS011;60354;47.798;12.472;2023-05-07T14:07:53;3.72;;;2.10;;
72379;SDS011;60354;47.798;12.472;2023-05-07T14:10:19;6.65;;;2.50;;
72379;SDS011;60354;47.798;12.472;2023-05-07T14:12:45;3.95;;;2.30;;
72379;SDS011;60354;47.798;12.472;2023-05-07T14:15:13;4.75;;;1.98;;
72379;SDS011;60354;47.798;12.472;2023-05-07T14:17:38;5.20;;;2.13;;
72379;SDS011;60354;47.798;12.472;2023-05-07T14:20:04;3.30;;;2.13;;
72379;SDS011;60354;47.798;12.472;2023-05-07T14:22:33;4.28;;;2.15;;
72379;SDS011;60354;47.798;12.472;2023-05-07T14:24:58;3.47;;;2.25;;
72379;SDS011;60354;47.798;12.472;2023-05-07T14:27:23;3.28;;;2.00;;
72379;SDS011;60354;47.798;12.472;2023-05-07T14:29:50;4.63;;;2.28;;
72379;SDS011;60354;47.798;12.472;2023-05-07T14:32:17;6.97;;;2.40;;
72379;SDS011;60354;47.798;12.472;2023-05-07T14:34:43;5.10;;;2.35;;
72379;SDS011;60354;47.798;12.472;2023-05-07T14:37:09;2.83;;;2.00;;
72379;SDS011;60354;47.798;12.472;2023-05-07T14:39:35;2.95;;;2.03;;
72379;SDS011;60354;47.798;12.472;2023-05-07T14:42:01;3.20;;;2.22;;
72379;SDS011;60354;47.798;12.472;2023-05-07T14:44:27;4.90;;;2.40;;
72379;SDS011;60354;47.798;12.472;2023-05-07T14:46:52;4.63;;;2.17;;